sensor_id;sensor_type;location;lat;lon;timestamp;temperature;humidity
10964;DHT22;5534;48.784;9.190;2022-09-09T00:02:23;18.90;99.90
10964;DHT22;5534;48.784;9.190;2022-09-09T00:04:59;18.40;99.90
10964;DHT22;5534;48.784;9.190;2022-09-09T00:07:47;18.40;99.90
10964;DHT22;5534;48.784;9.190;2022-09-09T00:15:31;18.00;99.90
10964;DHT22;5534;48.784;9.190;2022-09-09T00:18:14;18.20;99.90
10964;DHT22;5534;48.784;9.190;2022-09-09T00:23:40;18.30;99.90
10964;DHT22;5534;48.784;9.190;2022-09-09T00:28:46;18.30;99.90
10964;DHT22;5534;48.784;9.190;2022-09-09T00:31:28;18.10;99.90
10964;DHT22;5534;48.784;9.190;2022-09-09T00:34:00;18.30;99.90
10964;DHT22;5534;48.784;9.190;2022-09-09T00:36:28;18.60;99.90
10964;DHT22;5534;48.784;9.190;2022-09-09T00:38:58;18.90;99.90
10964;DHT22;5534;48.784;9.190;2022-09-09T00:44:36;19.20;99.90
10964;DHT22;5534;48.784;9.190;2022-09-09T00:47:25;19.30;99.90
10964;DHT22;5534;48.784;9.190;2022-09-09T00:50:03;19.20;99.90
10964;DHT22;5534;48.784;9.190;2022-09-09T00:58:08;19.20;99.90
10964;DHT22;5534;48.784;9.190;2022-09-09T01:00:46;19.30;99.90
10964;DHT22;5534;48.784;9.190;2022-09-09T01:03:47;19.40;99.90
10964;DHT22;5534;48.784;9.190;2022-09-09T01:17:05;19.50;99.90
10964;DHT22;5534;48.784;9.190;2022-09-09T01:22:40;19.60;99.90
10964;DHT22;5534;48.784;9.190;2022-09-09T01:25:28;19.50;99.90
10964;DHT22;5534;48.784;9.190;2022-09-09T01:27:57;19.50;99.90
10964;DHT22;5534;48.784;9.190;2022-09-09T01:30:25;19.30;99.90
10964;DHT22;5534;48.784;9.190;2022-09-09T01:32:56;19.50;99.90
10964;DHT22;5534;48.784;9.190;2022-09-09T01:37:49;19.60;99.90
10964;DHT22;5534;48.784;9.190;2022-09-09T01:40:16;19.70;99.90
10964;DHT22;5534;48.784;9.190;2022-09-09T01:42:41;19.80;99.90
10964;DHT22;5534;48.784;9.190;2022-09-09T01:45:07;19.60;99.90
10964;DHT22;5534;48.784;9.190;2022-09-09T01:47:34;19.60;99.90
10964;DHT22;5534;48.784;9.190;2022-09-09T01:50:01;19.60;99.90
10964;DHT22;5534;48.784;9.190;2022-09-09T01:52:29;19.80;99.90
10964;DHT22;5534;48.784;9.190;2022-09-09T01:54:55;19.80;99.90
10964;DHT22;5534;48.784;9.190;2022-09-09T01:57:34;19.70;99.90
10964;DHT22;5534;48.784;9.190;2022-09-09T02:00:05;19.70;99.90
10964;DHT22;5534;48.784;9.190;2022-09-09T02:02:41;19.70;99.90
10964;DHT22;5534;48.784;9.190;2022-09-09T02:07:57;19.70;99.90
10964;DHT22;5534;48.784;9.190;2022-09-09T02:10:31;19.70;99.90
10964;DHT22;5534;48.784;9.190;2022-09-09T02:13:09;19.70;99.90
10964;DHT22;5534;48.784;9.190;2022-09-09T02:18:12;19.40;99.90
10964;DHT22;5534;48.784;9.190;2022-09-09T02:20:40;19.50;99.90
10964;DHT22;5534;48.784;9.190;2022-09-09T02:23:07;19.50;99.90
10964;DHT22;5534;48.784;9.190;2022-09-09T02:25:36;19.60;99.90
10964;DHT22;5534;48.784;9.190;2022-09-09T02:28:03;19.30;99.90
10964;DHT22;5534;48.784;9.190;2022-09-09T02:30:31;19.30;99.90
10964;DHT22;5534;48.784;9.190;2022-09-09T02:32:58;19.30;99.90
10964;DHT22;5534;48.784;9.190;2022-09-09T02:35:28;19.40;99.90
10964;DHT22;5534;48.784;9.190;2022-09-09T02:38:00;19.40;99.90
10964;DHT22;5534;48.784;9.190;2022-09-09T02:40:28;19.50;99.90
10964;DHT22;5534;48.784;9.190;2022-09-09T02:42:56;19.50;99.90
10964;DHT22;5534;48.784;9.190;2022-09-09T02:45:29;19.40;99.90
10964;DHT22;5534;48.784;9.190;2022-09-09T02:48:20;19.30;99.90
10964;DHT22;5534;48.784;9.190;2022-09-09T02:51:03;19.30;99.90
10964;DHT22;5534;48.784;9.190;2022-09-09T02:53:43;19.20;99.90
10964;DHT22;5534;48.784;9.190;2022-09-09T02:56:15;19.00;99.90
10964;DHT22;5534;48.784;9.190;2022-09-09T02:58:42;18.90;99.90
10964;DHT22;5534;48.784;9.190;2022-09-09T03:01:08;18.90;99.90
10964;DHT22;5534;48.784;9.190;2022-09-09T03:03:35;18.90;99.90
10964;DHT22;5534;48.784;9.190;2022-09-09T03:06:01;18.90;99.90
10964;DHT22;5534;48.784;9.190;2022-09-09T03:08:26;18.90;99.90
10964;DHT22;5534;48.784;9.190;2022-09-09T03:10:54;18.80;99.90
10964;DHT22;5534;48.784;9.190;2022-09-09T03:13:20;18.90;99.90
10964;DHT22;5534;48.784;9.190;2022-09-09T03:15:47;18.90;99.90
10964;DHT22;5534;48.784;9.190;2022-09-09T03:18:14;18.90;99.90
10964;DHT22;5534;48.784;9.190;2022-09-09T03:20:39;19.20;99.90
10964;DHT22;5534;48.784;9.190;2022-09-09T03:23:07;19.20;99.90
10964;DHT22;5534;48.784;9.190;2022-09-09T03:25:33;19.20;99.90
10964;DHT22;5534;48.784;9.190;2022-09-09T03:27:59;19.20;99.90
10964;DHT22;5534;48.784;9.190;2022-09-09T03:30:26;19.30;99.90
10964;DHT22;5534;48.784;9.190;2022-09-09T03:32:52;19.20;99.90
10964;DHT22;5534;48.784;9.190;2022-09-09T03:35:18;19.20;99.90
10964;DHT22;5534;48.784;9.190;2022-09-09T03:37:44;19.00;99.90
10964;DHT22;5534;48.784;9.190;2022-09-09T03:40:11;18.90;99.90
10964;DHT22;5534;48.784;9.190;2022-09-09T03:42:37;19.00;99.90
10964;DHT22;5534;48.784;9.190;2022-09-09T03:45:05;18.80;99.90
10964;DHT22;5534;48.784;9.190;2022-09-09T03:47:31;18.80;99.90
10964;DHT22;5534;48.784;9.190;2022-09-09T03:49:57;19.00;99.90
10964;DHT22;5534;48.784;9.190;2022-09-09T03:52:22;19.10;99.90
10964;DHT22;5534;48.784;9.190;2022-09-09T03:54:50;19.30;99.90
10964;DHT22;5534;48.784;9.190;2022-09-09T03:57:17;19.20;99.90
10964;DHT22;5534;48.784;9.190;2022-09-09T03:59:43;19.10;99.90
10964;DHT22;5534;48.784;9.190;2022-09-09T04:02:09;19.10;99.90
10964;DHT22;5534;48.784;9.190;2022-09-09T04:04:35;19.30;99.90
10964;DHT22;5534;48.784;9.190;2022-09-09T04:07:01;19.20;99.90
10964;DHT22;5534;48.784;9.190;2022-09-09T04:09:26;19.30;99.90
10964;DHT22;5534;48.784;9.190;2022-09-09T04:11:52;19.30;99.90
10964;DHT22;5534;48.784;9.190;2022-09-09T04:14:19;19.30;99.90
10964;DHT22;5534;48.784;9.190;2022-09-09T04:16:45;19.30;99.90
10964;DHT22;5534;48.784;9.190;2022-09-09T04:19:12;19.20;99.90
10964;DHT22;5534;48.784;9.190;2022-09-09T04:21:40;19.20;99.90
10964;DHT22;5534;48.784;9.190;2022-09-09T04:24:07;19.30;99.90
10964;DHT22;5534;48.784;9.190;2022-09-09T04:26:33;19.30;99.90
10964;DHT22;5534;48.784;9.190;2022-09-09T04:28:59;18.90;99.90
10964;DHT22;5534;48.784;9.190;2022-09-09T04:31:25;19.00;99.90
10964;DHT22;5534;48.784;9.190;2022-09-09T04:33:51;19.10;99.90
10964;DHT22;5534;48.784;9.190;2022-09-09T04:36:17;18.80;99.90
10964;DHT22;5534;48.784;9.190;2022-09-09T04:38:46;18.90;99.90
10964;DHT22;5534;48.784;9.190;2022-09-09T04:41:14;19.20;99.90
10964;DHT22;5534;48.784;9.190;2022-09-09T04:43:40;19.20;99.90
10964;DHT22;5534;48.784;9.190;2022-09-09T04:46:06;19.10;99.90
10964;DHT22;5534;48.784;9.190;2022-09-09T04:48:32;19.10;99.90
10964;DHT22;5534;48.784;9.190;2022-09-09T04:51:04;18.70;99.90
10964;DHT22;5534;48.784;9.190;2022-09-09T04:53:30;18.80;99.90
10964;DHT22;5534;48.784;9.190;2022-09-09T04:56:05;18.90;99.90
10964;DHT22;5534;48.784;9.190;2022-09-09T04:58:31;18.80;99.90
10964;DHT22;5534;48.784;9.190;2022-09-09T05:01:08;18.80;99.90
10964;DHT22;5534;48.784;9.190;2022-09-09T05:03:34;18.80;99.90
10964;DHT22;5534;48.784;9.190;2022-09-09T05:06:08;18.70;99.90
10964;DHT22;5534;48.784;9.190;2022-09-09T05:08:39;18.70;99.90
10964;DHT22;5534;48.784;9.190;2022-09-09T05:11:15;18.80;99.90
10964;DHT22;5534;48.784;9.190;2022-09-09T05:13:41;18.80;99.90
10964;DHT22;5534;48.784;9.190;2022-09-09T05:16:08;18.90;99.90
10964;DHT22;5534;48.784;9.190;2022-09-09T05:18:40;18.80;99.90
10964;DHT22;5534;48.784;9.190;2022-09-09T05:21:06;19.00;99.90
10964;DHT22;5534;48.784;9.190;2022-09-09T05:23:36;19.10;99.90
10964;DHT22;5534;48.784;9.190;2022-09-09T05:26:03;19.10;99.90
10964;DHT22;5534;48.784;9.190;2022-09-09T05:28:29;18.90;99.90
10964;DHT22;5534;48.784;9.190;2022-09-09T05:31:00;18.90;99.90
10964;DHT22;5534;48.784;9.190;2022-09-09T05:33:29;19.00;99.90
10964;DHT22;5534;48.784;9.190;2022-09-09T05:35:59;19.10;99.90
10964;DHT22;5534;48.784;9.190;2022-09-09T05:38:26;19.10;99.90
10964;DHT22;5534;48.784;9.190;2022-09-09T05:40:52;19.10;99.90
10964;DHT22;5534;48.784;9.190;2022-09-09T05:43:19;19.10;99.90
10964;DHT22;5534;48.784;9.190;2022-09-09T05:45:46;19.10;99.90
10964;DHT22;5534;48.784;9.190;2022-09-09T05:48:16;19.20;99.90
10964;DHT22;5534;48.784;9.190;2022-09-09T05:50:42;19.30;99.90
10964;DHT22;5534;48.784;9.190;2022-09-09T05:53:09;19.30;99.90
10964;DHT22;5534;48.784;9.190;2022-09-09T05:55:36;19.20;99.90
10964;DHT22;5534;48.784;9.190;2022-09-09T05:58:01;19.10;99.90
10964;DHT22;5534;48.784;9.190;2022-09-09T06:00:28;19.00;99.90
10964;DHT22;5534;48.784;9.190;2022-09-09T06:02:55;19.00;99.90
10964;DHT22;5534;48.784;9.190;2022-09-09T06:05:20;19.30;99.90
10964;DHT22;5534;48.784;9.190;2022-09-09T06:07:48;19.30;99.90
10964;DHT22;5534;48.784;9.190;2022-09-09T06:10:17;19.20;99.90
10964;DHT22;5534;48.784;9.190;2022-09-09T06:12:43;19.20;99.90
10964;DHT22;5534;48.784;9.190;2022-09-09T06:15:09;19.20;99.90
10964;DHT22;5534;48.784;9.190;2022-09-09T06:17:35;19.30;99.90
10964;DHT22;5534;48.784;9.190;2022-09-09T06:20:01;19.40;99.90
10964;DHT22;5534;48.784;9.190;2022-09-09T06:22:28;19.30;99.90
10964;DHT22;5534;48.784;9.190;2022-09-09T06:24:53;19.40;99.90
10964;DHT22;5534;48.784;9.190;2022-09-09T06:27:19;19.40;99.90
10964;DHT22;5534;48.784;9.190;2022-09-09T06:29:45;19.60;99.90
10964;DHT22;5534;48.784;9.190;2022-09-09T06:32:11;19.50;99.90
10964;DHT22;5534;48.784;9.190;2022-09-09T06:34:36;19.40;99.90
10964;DHT22;5534;48.784;9.190;2022-09-09T06:37:02;19.40;99.90
10964;DHT22;5534;48.784;9.190;2022-09-09T06:39:28;19.40;99.90
10964;DHT22;5534;48.784;9.190;2022-09-09T06:41:53;19.50;99.90
10964;DHT22;5534;48.784;9.190;2022-09-09T06:44:19;19.60;99.90
10964;DHT22;5534;48.784;9.190;2022-09-09T06:46:45;19.50;99.90
10964;DHT22;5534;48.784;9.190;2022-09-09T06:49:13;19.60;99.90
10964;DHT22;5534;48.784;9.190;2022-09-09T06:51:39;19.60;99.90
10964;DHT22;5534;48.784;9.190;2022-09-09T06:54:08;19.70;99.90
10964;DHT22;5534;48.784;9.190;2022-09-09T06:56:41;19.70;99.90
10964;DHT22;5534;48.784;9.190;2022-09-09T06:59:09;19.70;99.90
10964;DHT22;5534;48.784;9.190;2022-09-09T07:01:37;19.70;99.90
10964;DHT22;5534;48.784;9.190;2022-09-09T07:04:05;19.70;99.90
10964;DHT22;5534;48.784;9.190;2022-09-09T07:06:36;19.80;99.90
10964;DHT22;5534;48.784;9.190;2022-09-09T07:09:06;19.80;99.90
10964;DHT22;5534;48.784;9.190;2022-09-09T07:11:44;19.90;99.90
10964;DHT22;5534;48.784;9.190;2022-09-09T07:14:11;19.90;99.90
10964;DHT22;5534;48.784;9.190;2022-09-09T07:16:42;19.90;99.90
10964;DHT22;5534;48.784;9.190;2022-09-09T07:19:12;19.90;99.90
10964;DHT22;5534;48.784;9.190;2022-09-09T07:21:38;19.90;99.90
10964;DHT22;5534;48.784;9.190;2022-09-09T07:24:05;20.00;99.90
10964;DHT22;5534;48.784;9.190;2022-09-09T07:26:33;19.90;99.90
10964;DHT22;5534;48.784;9.190;2022-09-09T07:28:59;20.10;99.90
10964;DHT22;5534;48.784;9.190;2022-09-09T07:31:28;20.10;99.90
10964;DHT22;5534;48.784;9.190;2022-09-09T07:33:56;20.10;99.90
10964;DHT22;5534;48.784;9.190;2022-09-09T07:36:23;20.20;99.90
10964;DHT22;5534;48.784;9.190;2022-09-09T07:38:51;20.40;99.90
10964;DHT22;5534;48.784;9.190;2022-09-09T07:41:20;20.60;99.90
10964;DHT22;5534;48.784;9.190;2022-09-09T07:43:47;20.80;99.90
10964;DHT22;5534;48.784;9.190;2022-09-09T07:46:14;20.80;99.90
10964;DHT22;5534;48.784;9.190;2022-09-09T07:48:54;20.90;99.90
10964;DHT22;5534;48.784;9.190;2022-09-09T07:51:30;20.80;99.90
10964;DHT22;5534;48.784;9.190;2022-09-09T07:53:58;21.00;99.90
10964;DHT22;5534;48.784;9.190;2022-09-09T07:56:27;21.00;99.90
10964;DHT22;5534;48.784;9.190;2022-09-09T07:58:54;21.10;99.90
10964;DHT22;5534;48.784;9.190;2022-09-09T08:01:32;20.90;99.90
10964;DHT22;5534;48.784;9.190;2022-09-09T08:04:00;21.20;99.90
10964;DHT22;5534;48.784;9.190;2022-09-09T08:06:32;21.70;99.90
10964;DHT22;5534;48.784;9.190;2022-09-09T08:08:59;22.10;99.90
10964;DHT22;5534;48.784;9.190;2022-09-09T08:11:27;22.50;99.90
10964;DHT22;5534;48.784;9.190;2022-09-09T08:13:53;22.80;99.90
10964;DHT22;5534;48.784;9.190;2022-09-09T08:16:25;22.90;99.90
10964;DHT22;5534;48.784;9.190;2022-09-09T08:18:52;23.00;99.90
10964;DHT22;5534;48.784;9.190;2022-09-09T08:21:25;23.10;99.90
10964;DHT22;5534;48.784;9.190;2022-09-09T08:23:54;23.30;99.90
10964;DHT22;5534;48.784;9.190;2022-09-09T08:26:25;23.40;99.90
10964;DHT22;5534;48.784;9.190;2022-09-09T08:28:53;23.50;99.90
10964;DHT22;5534;48.784;9.190;2022-09-09T08:31:22;23.50;99.90
10964;DHT22;5534;48.784;9.190;2022-09-09T08:33:49;23.50;99.90
10964;DHT22;5534;48.784;9.190;2022-09-09T08:36:20;23.50;99.90
10964;DHT22;5534;48.784;9.190;2022-09-09T08:38:50;23.60;99.90
10964;DHT22;5534;48.784;9.190;2022-09-09T08:52:19;23.30;99.90
10964;DHT22;5534;48.784;9.190;2022-09-09T08:54:47;23.10;99.90
10964;DHT22;5534;48.784;9.190;2022-09-09T08:57:22;23.10;99.90
10964;DHT22;5534;48.784;9.190;2022-09-09T08:59:52;23.30;99.90
10964;DHT22;5534;48.784;9.190;2022-09-09T09:06:20;23.40;99.90
10964;DHT22;5534;48.784;9.190;2022-09-09T09:10:54;23.80;99.90
10964;DHT22;5534;48.784;9.190;2022-09-09T09:13:47;23.50;99.90
10964;DHT22;5534;48.784;9.190;2022-09-09T09:18:52;23.10;99.90
10964;DHT22;5534;48.784;9.190;2022-09-09T09:21:45;22.80;99.90
10964;DHT22;5534;48.784;9.190;2022-09-09T09:24:55;22.60;99.90
10964;DHT22;5534;48.784;9.190;2022-09-09T09:27:32;22.60;99.90
10964;DHT22;5534;48.784;9.190;2022-09-09T09:30:20;22.30;99.90
10964;DHT22;5534;48.784;9.190;2022-09-09T09:35:26;22.10;99.90
10964;DHT22;5534;48.784;9.190;2022-09-09T09:37:52;21.80;99.90
10964;DHT22;5534;48.784;9.190;2022-09-09T09:40:20;21.50;99.90
10964;DHT22;5534;48.784;9.190;2022-09-09T09:42:58;21.40;99.90
10964;DHT22;5534;48.784;9.190;2022-09-09T09:45:33;21.20;99.90
10964;DHT22;5534;48.784;9.190;2022-09-09T09:48:01;21.40;99.90
10964;DHT22;5534;48.784;9.190;2022-09-09T09:50:28;21.70;99.90
10964;DHT22;5534;48.784;9.190;2022-09-09T09:53:16;22.10;99.90
10964;DHT22;5534;48.784;9.190;2022-09-09T09:55:52;22.30;99.90
10964;DHT22;5534;48.784;9.190;2022-09-09T09:58:19;22.50;99.90
10964;DHT22;5534;48.784;9.190;2022-09-09T10:00:49;22.60;99.90
10964;DHT22;5534;48.784;9.190;2022-09-09T10:03:28;22.80;99.90
10964;DHT22;5534;48.784;9.190;2022-09-09T10:05:55;23.00;99.90
10964;DHT22;5534;48.784;9.190;2022-09-09T10:08:23;22.80;99.90
10964;DHT22;5534;48.784;9.190;2022-09-09T10:13:59;23.10;99.90
10964;DHT22;5534;48.784;9.190;2022-09-09T10:19:30;23.40;99.90
10964;DHT22;5534;48.784;9.190;2022-09-09T10:30:19;23.70;99.90
10964;DHT22;5534;48.784;9.190;2022-09-09T10:33:02;23.80;99.90
10964;DHT22;5534;48.784;9.190;2022-09-09T10:35:34;23.80;99.90
10964;DHT22;5534;48.784;9.190;2022-09-09T10:38:26;23.80;99.90
10964;DHT22;5534;48.784;9.190;2022-09-09T10:46:31;24.10;99.90
10964;DHT22;5534;48.784;9.190;2022-09-09T10:49:23;24.20;99.90
10964;DHT22;5534;48.784;9.190;2022-09-09T10:52:00;24.10;99.90
10964;DHT22;5534;48.784;9.190;2022-09-09T10:54:41;24.10;99.90
10964;DHT22;5534;48.784;9.190;2022-09-09T10:59:50;23.60;99.90
10964;DHT22;5534;48.784;9.190;2022-09-09T11:02:32;23.50;99.90
10964;DHT22;5534;48.784;9.190;2022-09-09T11:05:29;23.60;99.90
10964;DHT22;5534;48.784;9.190;2022-09-09T11:07:59;23.80;99.90
10964;DHT22;5534;48.784;9.190;2022-09-09T11:13:21;23.90;99.90
10964;DHT22;5534;48.784;9.190;2022-09-09T11:15:57;23.90;99.90
10964;DHT22;5534;48.784;9.190;2022-09-09T11:18:39;24.00;99.90
10964;DHT22;5534;48.784;9.190;2022-09-09T11:21:15;24.00;99.90
10964;DHT22;5534;48.784;9.190;2022-09-09T11:23:48;23.90;99.90
10964;DHT22;5534;48.784;9.190;2022-09-09T11:26:28;23.50;99.90
10964;DHT22;5534;48.784;9.190;2022-09-09T11:31:47;23.10;99.90
10964;DHT22;5534;48.784;9.190;2022-09-09T11:40:19;22.30;99.90
10964;DHT22;5534;48.784;9.190;2022-09-09T11:42:47;22.30;99.90
10964;DHT22;5534;48.784;9.190;2022-09-09T11:45:22;22.20;99.90
10964;DHT22;5534;48.784;9.190;2022-09-09T11:47:54;22.10;99.90
10964;DHT22;5534;48.784;9.190;2022-09-09T11:52:47;22.00;99.90
10964;DHT22;5534;48.784;9.190;2022-09-09T11:55:32;21.90;99.90
10964;DHT22;5534;48.784;9.190;2022-09-09T11:58:03;21.90;99.90
10964;DHT22;5534;48.784;9.190;2022-09-09T12:02:58;21.90;99.90
10964;DHT22;5534;48.784;9.190;2022-09-09T12:05:36;22.10;99.90
10964;DHT22;5534;48.784;9.190;2022-09-09T12:08:04;22.30;99.90
10964;DHT22;5534;48.784;9.190;2022-09-09T12:10:33;22.50;99.90
10964;DHT22;5534;48.784;9.190;2022-09-09T12:17:27;22.70;99.90
10964;DHT22;5534;48.784;9.190;2022-09-09T12:28:39;22.50;99.90
10964;DHT22;5534;48.784;9.190;2022-09-09T12:33:45;22.90;99.90
10964;DHT22;5534;48.784;9.190;2022-09-09T12:36:36;23.20;99.90
10964;DHT22;5534;48.784;9.190;2022-09-09T12:39:18;23.20;99.90
10964;DHT22;5534;48.784;9.190;2022-09-09T12:41:53;23.20;99.90
10964;DHT22;5534;48.784;9.190;2022-09-09T12:44:25;23.40;99.90
10964;DHT22;5534;48.784;9.190;2022-09-09T12:46:54;23.40;99.10
10964;DHT22;5534;48.784;9.190;2022-09-09T12:49:34;23.30;99.30
10964;DHT22;5534;48.784;9.190;2022-09-09T12:52:07;23.10;99.80
10964;DHT22;5534;48.784;9.190;2022-09-09T12:54:36;23.10;99.90
10964;DHT22;5534;48.784;9.190;2022-09-09T12:57:03;23.10;99.90
10964;DHT22;5534;48.784;9.190;2022-09-09T12:59:41;22.90;99.90
10964;DHT22;5534;48.784;9.190;2022-09-09T13:02:21;22.70;99.90
10964;DHT22;5534;48.784;9.190;2022-09-09T13:04:48;22.80;99.90
10964;DHT22;5534;48.784;9.190;2022-09-09T13:07:17;22.90;99.90
10964;DHT22;5534;48.784;9.190;2022-09-09T13:09:45;23.00;99.90
10964;DHT22;5534;48.784;9.190;2022-09-09T13:12:15;23.00;99.90
10964;DHT22;5534;48.784;9.190;2022-09-09T13:14:44;23.20;99.90
10964;DHT22;5534;48.784;9.190;2022-09-09T13:17:19;23.00;99.90
10964;DHT22;5534;48.784;9.190;2022-09-09T13:19:46;23.00;99.90
10964;DHT22;5534;48.784;9.190;2022-09-09T13:22:21;22.90;99.90
10964;DHT22;5534;48.784;9.190;2022-09-09T13:27:32;23.30;99.90
10964;DHT22;5534;48.784;9.190;2022-09-09T13:30:00;23.40;99.90
10964;DHT22;5534;48.784;9.190;2022-09-09T13:32:28;23.50;99.90
10964;DHT22;5534;48.784;9.190;2022-09-09T13:34:57;23.60;99.90
10964;DHT22;5534;48.784;9.190;2022-09-09T13:37:38;23.50;99.90
10964;DHT22;5534;48.784;9.190;2022-09-09T13:40:17;23.70;99.90
10964;DHT22;5534;48.784;9.190;2022-09-09T13:42:44;23.90;99.90
10964;DHT22;5534;48.784;9.190;2022-09-09T13:45:22;23.80;99.60
10964;DHT22;5534;48.784;9.190;2022-09-09T13:47:49;23.70;99.10
10964;DHT22;5534;48.784;9.190;2022-09-09T13:52:48;23.30;98.60
10964;DHT22;5534;48.784;9.190;2022-09-09T13:55:21;23.30;98.60
10964;DHT22;5534;48.784;9.190;2022-09-09T13:57:52;23.40;98.60
10964;DHT22;5534;48.784;9.190;2022-09-09T14:00:18;23.40;98.10
10964;DHT22;5534;48.784;9.190;2022-09-09T14:02:44;23.40;98.30
10964;DHT22;5534;48.784;9.190;2022-09-09T14:05:10;23.50;98.80
10964;DHT22;5534;48.784;9.190;2022-09-09T14:07:38;23.60;98.30
10964;DHT22;5534;48.784;9.190;2022-09-09T14:10:06;23.60;98.10
10964;DHT22;5534;48.784;9.190;2022-09-09T14:12:32;23.60;98.00
10964;DHT22;5534;48.784;9.190;2022-09-09T14:15:00;23.50;98.00
10964;DHT22;5534;48.784;9.190;2022-09-09T14:17:26;23.50;98.40
10964;DHT22;5534;48.784;9.190;2022-09-09T14:19:57;23.50;98.30
10964;DHT22;5534;48.784;9.190;2022-09-09T14:22:23;23.50;97.70
10964;DHT22;5534;48.784;9.190;2022-09-09T14:24:50;23.60;97.20
10964;DHT22;5534;48.784;9.190;2022-09-09T14:27:17;23.70;97.10
10964;DHT22;5534;48.784;9.190;2022-09-09T14:29:44;23.70;97.40
10964;DHT22;5534;48.784;9.190;2022-09-09T14:32:11;23.70;97.40
10964;DHT22;5534;48.784;9.190;2022-09-09T14:34:37;23.30;97.10
10964;DHT22;5534;48.784;9.190;2022-09-09T14:37:04;23.20;97.60
10964;DHT22;5534;48.784;9.190;2022-09-09T14:39:33;23.20;97.90
10964;DHT22;5534;48.784;9.190;2022-09-09T14:41:59;23.30;97.40
10964;DHT22;5534;48.784;9.190;2022-09-09T14:44:25;23.40;97.30
10964;DHT22;5534;48.784;9.190;2022-09-09T14:46:51;23.30;97.10
10964;DHT22;5534;48.784;9.190;2022-09-09T14:49:17;23.30;97.40
10964;DHT22;5534;48.784;9.190;2022-09-09T14:51:43;23.30;97.70
10964;DHT22;5534;48.784;9.190;2022-09-09T14:54:09;23.20;97.00
10964;DHT22;5534;48.784;9.190;2022-09-09T14:56:36;23.30;97.50
10964;DHT22;5534;48.784;9.190;2022-09-09T14:59:03;23.40;97.20
10964;DHT22;5534;48.784;9.190;2022-09-09T15:01:30;23.50;97.10
10964;DHT22;5534;48.784;9.190;2022-09-09T15:03:59;23.60;96.50
10964;DHT22;5534;48.784;9.190;2022-09-09T15:06:28;23.60;96.30
10964;DHT22;5534;48.784;9.190;2022-09-09T15:08:56;23.40;96.00
10964;DHT22;5534;48.784;9.190;2022-09-09T15:11:27;23.40;95.80
10964;DHT22;5534;48.784;9.190;2022-09-09T15:13:53;23.40;95.60
10964;DHT22;5534;48.784;9.190;2022-09-09T15:16:21;23.40;95.60
10964;DHT22;5534;48.784;9.190;2022-09-09T15:18:51;23.30;95.80
10964;DHT22;5534;48.784;9.190;2022-09-09T15:21:20;23.20;96.30
10964;DHT22;5534;48.784;9.190;2022-09-09T15:23:47;23.10;96.50
10964;DHT22;5534;48.784;9.190;2022-09-09T15:26:13;23.00;96.40
10964;DHT22;5534;48.784;9.190;2022-09-09T15:28:40;22.80;96.60
10964;DHT22;5534;48.784;9.190;2022-09-09T15:31:12;23.00;96.40
10964;DHT22;5534;48.784;9.190;2022-09-09T15:33:40;23.00;96.40
10964;DHT22;5534;48.784;9.190;2022-09-09T15:38:39;23.00;96.50
10964;DHT22;5534;48.784;9.190;2022-09-09T15:41:05;23.00;96.60
10964;DHT22;5534;48.784;9.190;2022-09-09T15:43:31;22.80;97.00
10964;DHT22;5534;48.784;9.190;2022-09-09T15:46:00;22.90;97.20
10964;DHT22;5534;48.784;9.190;2022-09-09T15:48:31;22.90;97.70
10964;DHT22;5534;48.784;9.190;2022-09-09T15:51:04;22.80;97.40
10964;DHT22;5534;48.784;9.190;2022-09-09T15:53:30;22.70;97.90
10964;DHT22;5534;48.784;9.190;2022-09-09T15:55:58;22.70;97.80
10964;DHT22;5534;48.784;9.190;2022-09-09T15:58:24;22.70;97.90
10964;DHT22;5534;48.784;9.190;2022-09-09T16:00:50;22.90;97.70
10964;DHT22;5534;48.784;9.190;2022-09-09T16:03:16;22.70;97.60
10964;DHT22;5534;48.784;9.190;2022-09-09T16:05:42;22.50;97.40
10964;DHT22;5534;48.784;9.190;2022-09-09T16:08:08;22.50;97.70
10964;DHT22;5534;48.784;9.190;2022-09-09T16:10:34;22.60;97.40
10964;DHT22;5534;48.784;9.190;2022-09-09T16:13:00;22.50;97.00
10964;DHT22;5534;48.784;9.190;2022-09-09T16:15:26;22.50;96.80
10964;DHT22;5534;48.784;9.190;2022-09-09T16:17:55;22.50;97.10
10964;DHT22;5534;48.784;9.190;2022-09-09T16:20:20;22.50;97.00
10964;DHT22;5534;48.784;9.190;2022-09-09T16:22:46;22.50;96.90
10964;DHT22;5534;48.784;9.190;2022-09-09T16:25:21;22.50;97.50
10964;DHT22;5534;48.784;9.190;2022-09-09T16:27:48;22.40;97.00
10964;DHT22;5534;48.784;9.190;2022-09-09T16:30:13;22.40;97.70
10964;DHT22;5534;48.784;9.190;2022-09-09T16:32:40;22.40;97.60
10964;DHT22;5534;48.784;9.190;2022-09-09T16:35:05;22.40;97.80
10964;DHT22;5534;48.784;9.190;2022-09-09T16:37:31;22.50;98.00
10964;DHT22;5534;48.784;9.190;2022-09-09T16:39:59;22.30;98.50
10964;DHT22;5534;48.784;9.190;2022-09-09T16:42:25;22.30;99.00
10964;DHT22;5534;48.784;9.190;2022-09-09T16:44:51;22.30;99.50
10964;DHT22;5534;48.784;9.190;2022-09-09T16:47:23;22.20;99.90
10964;DHT22;5534;48.784;9.190;2022-09-09T16:49:48;22.20;99.70
10964;DHT22;5534;48.784;9.190;2022-09-09T16:52:14;22.10;99.90
10964;DHT22;5534;48.784;9.190;2022-09-09T16:54:40;21.90;99.60
10964;DHT22;5534;48.784;9.190;2022-09-09T16:57:09;21.90;99.90
10964;DHT22;5534;48.784;9.190;2022-09-09T16:59:34;21.90;99.90
10964;DHT22;5534;48.784;9.190;2022-09-09T17:02:01;21.80;99.90
10964;DHT22;5534;48.784;9.190;2022-09-09T17:04:30;21.80;99.90
10964;DHT22;5534;48.784;9.190;2022-09-09T17:06:56;21.60;99.90
10964;DHT22;5534;48.784;9.190;2022-09-09T17:09:23;21.50;99.90
10964;DHT22;5534;48.784;9.190;2022-09-09T17:11:49;21.40;99.90
10964;DHT22;5534;48.784;9.190;2022-09-09T17:14:18;21.50;99.90
10964;DHT22;5534;48.784;9.190;2022-09-09T17:16:45;21.60;99.90
10964;DHT22;5534;48.784;9.190;2022-09-09T17:19:12;21.60;99.90
10964;DHT22;5534;48.784;9.190;2022-09-09T17:21:38;21.50;99.90
10964;DHT22;5534;48.784;9.190;2022-09-09T17:24:05;21.50;99.90
10964;DHT22;5534;48.784;9.190;2022-09-09T17:26:32;21.50;99.90
10964;DHT22;5534;48.784;9.190;2022-09-09T17:29:00;21.40;99.90
10964;DHT22;5534;48.784;9.190;2022-09-09T17:31:27;21.30;99.90
10964;DHT22;5534;48.784;9.190;2022-09-09T17:33:54;21.10;99.90
10964;DHT22;5534;48.784;9.190;2022-09-09T17:36:23;21.10;99.90
10964;DHT22;5534;48.784;9.190;2022-09-09T17:38:50;21.10;99.90
10964;DHT22;5534;48.784;9.190;2022-09-09T17:41:18;21.20;99.90
10964;DHT22;5534;48.784;9.190;2022-09-09T17:43:46;21.00;99.90
10964;DHT22;5534;48.784;9.190;2022-09-09T17:46:14;21.00;99.90
10964;DHT22;5534;48.784;9.190;2022-09-09T17:48:42;21.10;99.90
10964;DHT22;5534;48.784;9.190;2022-09-09T17:51:11;21.10;99.90
10964;DHT22;5534;48.784;9.190;2022-09-09T17:53:39;21.10;99.90
10964;DHT22;5534;48.784;9.190;2022-09-09T17:56:06;20.80;99.90
10964;DHT22;5534;48.784;9.190;2022-09-09T17:58:33;20.60;99.90
10964;DHT22;5534;48.784;9.190;2022-09-09T18:01:14;20.60;99.90
10964;DHT22;5534;48.784;9.190;2022-09-09T18:03:41;20.50;99.90
10964;DHT22;5534;48.784;9.190;2022-09-09T18:06:13;20.80;99.90
10964;DHT22;5534;48.784;9.190;2022-09-09T18:08:42;20.90;99.90